Time;durP1;ratioP1;P1;durP2;ratioP2;P2;SDS_P1;SDS_P2;PMS_P1;PMS_P2;Temp;Humidity;BMP_temperature;BMP_pressure;BME280_temperature;BME280_humidity;BME280_pressure;Samples;Min_cycle;Max_cycle;Signal;HPM_P1;HPM_P2
2022/04/28 00:02:21;;;;;;;16.15;8.25;;;;;;;17.13;61.71;94997.72;5062012;28;20212;-74
2022/04/28 00:04:48;;;;;;;6.68;5.78;;;;;;;16.78;62.44;95004.13;5061353;28;20206;-75
2022/04/28 00:07:15;;;;;;;4.35;4.00;;;;;;;16.99;61.68;95006.25;5061118;28;20660;-74
2022/04/28 00:09:41;;;;;;;8.27;5.38;;;;;;;17.40;60.67;95005.50;5061011;28;20289;-73
2022/04/28 00:12:10;;;;;;;6.85;4.93;;;;;;;17.71;59.36;95006.22;5063608;28;20284;-73
2022/04/28 00:14:37;;;;;;;4.45;3.47;;;;;;;17.37;59.65;95000.53;5062185;28;21918;-74
2022/04/28 00:17:05;;;;;;;7.22;3.53;;;;;;;17.25;60.55;94996.16;5059294;28;20237;-74
2022/04/28 00:19:32;;;;;;;4.32;3.00;;;;;;;16.82;61.78;95005.63;5061526;28;20225;-73
2022/04/28 00:21:59;;;;;;;4.93;3.13;;;;;;;16.65;62.28;95007.41;5060586;28;20305;-74
2022/04/28 00:24:25;;;;;;;4.38;2.50;;;;;;;16.82;61.92;95015.88;5062598;28;20286;-74
2022/04/28 00:26:52;;;;;;;3.13;2.88;;;;;;;16.94;61.16;95021.09;5061091;28;20299;-72
2022/04/28 00:29:20;;;;;;;4.35;2.50;;;;;;;17.27;60.04;95022.59;5061120;28;20209;-73
2022/04/28 00:31:47;;;;;;;4.18;3.45;;;;;;;17.55;59.58;95025.13;5062260;28;20291;-74
2022/04/28 00:34:16;;;;;;;5.53;3.13;;;;;;;17.61;59.42;95017.03;5062032;28;20253;-75
2022/04/28 00:36:43;;;;;;;6.30;4.18;;;;;;;17.64;59.92;95026.28;5060498;28;20255;-74
2022/04/28 00:39:09;;;;;;;7.68;3.92;;;;;;;17.80;59.38;95032.19;5063029;28;20294;-74
2022/04/28 00:41:36;;;;;;;5.10;3.75;;;;;;;17.96;58.54;95037.19;5060846;28;20366;-74
2022/04/28 00:44:03;;;;;;;3.67;2.92;;;;;;;17.71;58.99;95032.75;5059828;28;20263;-73
2022/04/28 00:46:30;;;;;;;2.85;2.50;;;;;;;17.68;58.84;95033.75;5061102;28;20201;-74
2022/04/28 00:51:42;;;;;;;9.75;7.07;;;;;;;16.86;60.99;95036.13;5059999;28;20265;-72
2022/04/28 00:54:09;;;;;;;10.45;5.30;;;;;;;17.09;60.69;95032.19;5062944;28;20221;-74
2022/04/28 00:56:36;;;;;;;12.77;5.18;;;;;;;17.15;60.63;95043.84;5059151;28;20947;-74
2022/04/28 00:59:04;;;;;;;7.75;3.75;;;;;;;17.23;59.74;95041.66;5059141;28;20281;-73
2022/04/28 01:01:31;;;;;;;7.88;3.25;;;;;;;17.25;59.64;95044.97;5060929;28;22323;-74
2022/04/28 01:03:58;;;;;;;4.28;3.88;;;;;;;17.31;59.39;95040.28;5058322;28;20206;-73
2022/04/28 01:06:24;;;;;;;2.92;2.42;;;;;;;17.26;59.50;95037.16;5061414;28;20991;-74
2022/04/28 01:08:53;;;;;;;3.55;3.17;;;;;;;17.29;59.30;95034.41;5060167;28;20229;-74
2022/04/28 01:11:20;;;;;;;3.17;2.88;;;;;;;17.22;59.82;95040.84;5058417;28;20233;-72
2022/04/28 01:13:47;;;;;;;2.70;1.75;;;;;;;16.91;60.66;95034.13;5061199;28;20233;-71
2022/04/28 01:16:15;;;;;;;6.30;2.75;;;;;;;16.66;61.58;95033.88;5060045;28;20237;-72
2022/04/28 01:18:42;;;;;;;4.43;2.63;;;;;;;16.55;62.15;95036.22;5058910;28;20278;-73
2022/04/28 01:21:10;;;;;;;8.70;3.60;;;;;;;16.20;64.78;95051.84;5062625;28;20451;-72
2022/04/28 01:23:37;;;;;;;4.90;3.53;;;;;;;16.05;66.29;95054.44;5059215;28;20213;-71
2022/04/28 01:26:05;;;;;;;8.20;4.80;;;;;;;15.89;67.45;95054.44;5060807;28;20257;-72
2022/04/28 01:28:33;;;;;;;10.70;5.03;;;;;;;15.76;68.43;95056.03;5059143;28;20233;-73
2022/04/28 01:31:01;;;;;;;8.20;4.32;;;;;;;15.48;69.75;95047.22;5059998;28;20326;-73
2022/04/28 01:33:28;;;;;;;5.85;4.47;;;;;;;15.56;69.99;95057.94;5061199;28;20803;-73
2022/04/28 01:35:55;;;;;;;6.18;4.25;;;;;;;15.54;70.13;95062.28;5059805;28;20292;-73
2022/04/28 01:38:23;;;;;;;5.05;4.05;;;;;;;15.76;69.57;95053.47;5058400;28;20210;-72
2022/04/28 01:40:50;;;;;;;6.32;3.95;;;;;;;15.83;69.00;95062.50;5058258;28;21283;-73
2022/04/28 01:43:17;;;;;;;5.40;4.40;;;;;;;15.58;70.51;95060.41;5058506;28;20201;-73
2022/04/28 01:45:43;;;;;;;8.15;4.63;;;;;;;15.57;70.49;95063.88;5055319;28;20567;-74
2022/04/28 01:48:10;;;;;;;7.00;4.53;;;;;;;15.81;69.74;95064.31;5059496;28;20233;-73
2022/04/28 01:50:37;;;;;;;4.95;4.32;;;;;;;16.03;68.64;95057.09;5055514;28;20201;-72
2022/04/28 01:55:49;;;;;;;5.45;4.95;;;;;;;15.67;70.16;95059.06;5059536;28;20204;-71
2022/04/28 01:58:16;;;;;;;7.10;4.63;;;;;;;15.87;69.62;95074.19;5058994;28;20233;-72
2022/04/28 02:00:43;;;;;;;5.80;4.10;;;;;;;16.19;68.66;95077.59;5059901;28;20265;-73
2022/04/28 02:03:09;;;;;;;10.05;4.18;;;;;;;16.26;68.07;95074.59;5060677;28;20652;-73
2022/04/28 02:05:36;;;;;;;5.72;3.92;;;;;;;16.47;67.34;95076.88;5061268;28;20202;-73
2022/04/28 02:08:03;;;;;;;8.27;5.70;;;;;;;16.45;66.79;95066.69;5060364;28;20198;-74
2022/04/28 02:10:30;;;;;;;9.73;4.28;;;;;;;16.28;67.61;95077.09;5060102;28;20216;-71
2022/04/28 02:12:58;;;;;;;4.53;3.85;;;;;;;16.12;68.40;95077.09;5061589;28;20284;-72
2022/04/28 02:15:25;;;;;;;5.60;4.07;;;;;;;15.91;69.60;95076.53;5061856;28;20202;-73
2022/04/28 02:17:52;;;;;;;9.07;4.35;;;;;;;15.91;69.65;95078.25;5061172;28;20679;-72
2022/04/28 02:20:18;;;;;;;10.63;3.80;;;;;;;15.97;69.32;95077.94;5060849;28;20668;-73
2022/04/28 02:22:45;;;;;;;9.27;4.40;;;;;;;16.00;69.29;95072.66;5060434;28;20221;-73
2022/04/28 02:25:12;;;;;;;4.95;4.45;;;;;;;15.86;69.79;95080.22;5061616;28;20266;-72
2022/04/28 02:27:39;;;;;;;8.15;4.63;;;;;;;15.84;69.99;95095.69;5060760;28;20258;-72
2022/04/28 02:30:08;;;;;;;6.03;4.18;;;;;;;15.96;69.44;95087.34;5061273;28;20229;-75
2022/04/28 02:35:15;;;;;;;7.13;4.80;;;;;;;15.87;70.41;95081.88;5061462;28;20201;-72
2022/04/28 02:37:42;;;;;;;4.93;4.30;;;;;;;15.67;71.40;95089.81;5061569;28;20282;-73
2022/04/28 02:40:10;;;;;;;10.70;4.15;;;;;;;15.96;70.20;95089.09;5061080;28;20294;-73
2022/04/28 02:42:37;;;;;;;6.63;3.78;;;;;;;16.04;69.67;95081.81;5064221;28;21200;-73
2022/04/28 02:45:04;;;;;;;7.38;4.10;;;;;;;16.01;69.92;95089.69;5065046;28;20201;-73
2022/04/28 02:47:33;;;;;;;5.18;4.22;;;;;;;15.71;71.08;95084.47;5065325;28;20666;-74
2022/04/28 02:50:00;;;;;;;5.75;4.65;;;;;;;15.58;72.27;95096.28;5064524;28;20331;-73
2022/04/28 02:52:27;;;;;;;9.60;4.28;;;;;;;15.30;72.85;95076.38;5065720;28;20567;-74
2022/04/28 02:54:54;;;;;;;10.32;4.65;;;;;;;15.34;73.66;95092.41;5065675;28;20206;-73
2022/04/28 02:57:20;;;;;;;4.25;3.85;;;;;;;15.48;72.78;95095.88;5065980;28;20222;-73
2022/04/28 02:59:47;;;;;;;5.45;4.63;;;;;;;15.41;73.33;95094.53;5065397;28;20198;-75
2022/04/28 03:02:14;;;;;;;4.45;4.20;;;;;;;15.56;72.75;95098.91;5064398;28;21442;-73
2022/04/28 03:04:42;;;;;;;7.00;4.50;;;;;;;15.73;72.04;95097.19;5063596;28;20206;-73
2022/04/28 03:12:37;;;;;;;5.47;4.25;;;;;;;15.59;72.39;95098.72;5062658;28;20288;-73
2022/04/28 03:15:06;;;;;;;10.05;5.18;;;;;;;15.70;72.25;95094.78;5062477;28;20201;-75
2022/04/28 03:17:33;;;;;;;6.68;5.03;;;;;;;15.75;72.11;95108.19;5062331;28;20293;-74
2022/04/28 03:20:01;;;;;;;4.97;4.47;;;;;;;15.88;71.64;95119.41;5064268;28;20348;-72
2022/04/28 03:22:28;;;;;;;10.10;5.38;;;;;;;16.03;70.95;95113.50;5062434;28;20234;-73
2022/04/28 03:24:55;;;;;;;5.03;4.60;;;;;;;16.13;70.39;95114.63;5061279;28;20213;-74
2022/04/28 03:27:22;;;;;;;10.77;4.30;;;;;;;16.36;69.39;95115.09;5064105;28;20553;-72
2022/04/28 03:29:49;;;;;;;5.32;4.90;;;;;;;16.07;70.46;95124.41;5061563;28;20559;-73
2022/04/28 03:32:16;;;;;;;6.07;5.45;;;;;;;16.18;70.21;95116.94;5062079;28;20618;-72
2022/04/28 03:34:42;;;;;;;6.63;5.57;;;;;;;16.10;70.61;95125.03;5062233;28;20189;-73
2022/04/28 03:37:11;;;;;;;10.20;5.85;;;;;;;15.90;71.45;95138.94;5063126;28;20282;-72
2022/04/28 03:39:38;;;;;;;5.68;5.18;;;;;;;16.08;71.06;95144.00;5061183;28;20206;-73
2022/04/28 03:42:06;;;;;;;6.95;6.50;;;;;;;15.97;71.60;95149.69;5063585;28;20236;-74
2022/04/28 03:44:33;;;;;;;8.10;7.35;;;;;;;15.88;71.63;95150.19;5063049;28;20208;-74
2022/04/28 03:47:00;;;;;;;10.65;9.60;;;;;;;15.84;72.22;95148.69;5064097;28;20296;-73
2022/04/28 03:49:27;;;;;;;9.63;8.90;;;;;;;15.83;72.34;95159.88;5064774;28;20282;-73
2022/04/28 03:51:53;;;;;;;8.98;8.18;;;;;;;15.97;71.62;95154.81;5064887;28;20201;-72
2022/04/28 03:54:22;;;;;;;7.95;7.32;;;;;;;15.94;71.80;95160.09;5065460;28;20201;-74
2022/04/28 03:56:49;;;;;;;8.43;7.68;;;;;;;16.11;70.92;95157.47;5063122;28;20317;-74
2022/04/28 03:59:15;;;;;;;13.20;8.10;;;;;;;15.95;71.29;95151.50;5061312;28;20229;-72
2022/04/28 04:01:42;;;;;;;7.72;7.22;;;;;;;15.77;72.14;95155.06;5061661;28;20318;-71
2022/04/28 04:04:09;;;;;;;12.98;10.80;;;;;;;15.87;72.01;95157.03;5063288;28;20230;-71
2022/04/28 04:06:36;;;;;;;12.00;10.90;;;;;;;15.88;71.82;95163.00;5063789;28;20750;-72
2022/04/28 04:09:02;;;;;;;10.07;9.05;;;;;;;15.94;71.75;95160.09;5062772;28;20285;-72
2022/04/28 04:11:30;;;;;;;7.72;7.05;;;;;;;16.03;71.35;95159.63;5063657;28;20225;-74
2022/04/28 04:13:57;;;;;;;7.47;6.88;;;;;;;15.95;71.38;95166.91;5061942;28;20201;-75
2022/04/28 04:16:24;;;;;;;7.50;6.97;;;;;;;15.64;73.00;95158.25;5062638;28;20259;-73
2022/04/28 04:18:51;;;;;;;7.75;7.13;;;;;;;15.71;73.55;95163.88;5063326;28;20283;-75
2022/04/28 04:21:19;;;;;;;6.70;6.20;;;;;;;15.80;72.59;95167.72;5061432;28;20272;-74
2022/04/28 04:23:45;;;;;;;6.30;5.90;;;;;;;15.77;71.69;95168.69;5059813;28;20293;-75
2022/04/28 04:26:12;;;;;;;5.57;5.13;;;;;;;15.75;71.39;95170.50;5058837;28;22195;-74
2022/04/28 04:28:40;;;;;;;8.18;7.38;;;;;;;15.60;71.86;95166.97;5061930;28;20225;-74
2022/04/28 04:33:51;;;;;;;4.72;4.43;;;;;;;15.46;71.28;95174.53;5062862;28;20205;-73
2022/04/28 04:36:18;;;;;;;4.47;4.18;;;;;;;15.48;71.00;95177.84;5061394;28;20214;-72
2022/04/28 04:38:45;;;;;;;3.60;3.40;;;;;;;15.43;71.25;95184.91;5061218;28;20273;-73
2022/04/28 04:41:12;;;;;;;3.72;3.42;;;;;;;15.45;71.44;95185.69;5062500;28;20209;-74
2022/04/28 04:43:41;;;;;;;4.45;4.00;;;;;;;15.61;70.98;95189.13;5061395;28;20202;-73
2022/04/28 04:46:07;;;;;;;9.85;5.40;;;;;;;15.59;70.74;95190.16;5062996;28;21155;-72
2022/04/28 04:48:34;;;;;;;7.63;6.72;;;;;;;15.71;70.45;95184.38;5063147;28;20248;-73
2022/04/28 04:51:02;;;;;;;3.70;3.50;;;;;;;15.48;70.25;95195.78;5062333;28;20200;-73
2022/04/28 04:53:29;;;;;;;3.33;3.13;;;;;;;15.44;70.46;95201.94;5062321;28;20213;-73
2022/04/28 04:55:56;;;;;;;3.00;2.80;;;;;;;15.21;71.18;95199.72;5063053;28;20206;-74
2022/04/28 04:58:22;;;;;;;3.10;2.85;;;;;;;15.07;71.68;95197.00;5062858;28;20225;-73
2022/04/28 05:00:52;;;;;;;2.80;2.70;;;;;;;15.15;70.76;95205.94;5060888;28;20201;-75
2022/04/28 05:03:19;;;;;;;2.10;1.88;;;;;;;14.96;70.48;95210.31;5058856;28;20234;-72
2022/04/28 05:05:46;;;;;;;2.40;2.30;;;;;;;14.95;70.75;95208.66;5062515;28;20775;-73
2022/04/28 05:08:14;;;;;;;2.22;2.03;;;;;;;15.07;70.10;95213.19;5061871;28;20206;-73
2022/04/28 05:10:41;;;;;;;1.50;1.40;;;;;;;14.83;71.02;95211.81;5061989;28;20785;-73
2022/04/28 05:13:08;;;;;;;2.80;1.98;;;;;;;14.73;71.71;95215.69;5062305;28;20206;-72
2022/04/28 05:15:35;;;;;;;1.40;1.40;;;;;;;14.75;71.03;95217.28;5063121;28;20633;-74
2022/04/28 05:18:03;;;;;;;1.48;1.38;;;;;;;14.26;71.31;95167.56;5062976;28;20291;-73
2022/04/28 05:20:30;;;;;;;1.60;1.50;;;;;;;14.72;71.11;95227.66;5062718;28;20202;-74
2022/04/28 05:22:56;;;;;;;1.50;1.40;;;;;;;14.70;70.96;95219.22;5062106;28;20265;-74
2022/04/28 05:25:23;;;;;;;1.48;1.38;;;;;;;14.79;70.57;95228.22;5061899;28;20222;-73
2022/04/28 05:27:50;;;;;;;1.63;1.55;;;;;;;14.51;71.68;95236.34;5061067;28;20202;-73
2022/04/28 05:30:17;;;;;;;3.58;2.22;;;;;;;14.46;72.12;95235.72;5063310;28;20206;-73
2022/04/28 05:32:44;;;;;;;1.20;1.20;;;;;;;14.60;71.31;95234.16;5060746;28;20221;-73
2022/04/28 05:35:12;;;;;;;2.58;1.35;;;;;;;14.63;71.41;95238.31;5061608;28;21137;-74
2022/04/28 05:37:39;;;;;;;1.30;1.30;;;;;;;14.40;72.15;95236.78;5061276;28;20234;-73
2022/04/28 05:40:08;;;;;;;0.90;0.90;;;;;;;14.35;71.99;95248.13;5058997;28;20559;-73
2022/04/28 05:48:05;;;;;;;1.55;1.20;;;;;;;14.33;72.93;95255.88;5061115;28;20350;-74
2022/04/28 05:50:33;;;;;;;2.97;1.75;;;;;;;14.23;73.26;95260.56;5060837;28;20248;-72
2022/04/28 05:53:00;;;;;;;1.10;1.10;;;;;;;14.24;74.05;95257.09;5058637;28;20678;-74
2022/04/28 05:55:27;;;;;;;1.23;1.23;;;;;;;14.11;75.08;95258.53;5058840;28;20198;-73
2022/04/28 05:57:54;;;;;;;0.90;0.90;;;;;;;14.02;75.61;95260.69;5062142;28;20600;-74
2022/04/28 06:00:21;;;;;;;1.05;1.05;;;;;;;13.95;76.03;95258.38;5061509;28;20298;-73
2022/04/28 06:02:48;;;;;;;1.10;1.10;;;;;;;14.07;76.08;95269.81;5057894;28;20251;-74
2022/04/28 06:05:15;;;;;;;0.77;0.77;;;;;;;14.03;76.48;95275.94;5060815;28;20206;-72
2022/04/28 06:07:43;;;;;;;3.92;1.10;;;;;;;14.14;75.67;95271.19;5060260;28;20201;-73
2022/04/28 06:10:12;;;;;;;1.20;1.10;;;;;;;14.22;75.60;95276.78;5060882;28;20202;-73
2022/04/28 06:12:38;;;;;;;0.90;0.90;;;;;;;14.06;76.02;95283.50;5060448;28;20197;-73
2022/04/28 06:15:06;;;;;;;3.70;0.90;;;;;;;13.97;76.12;95273.66;5060471;28;20230;-74
2022/04/28 06:17:33;;;;;;;0.93;0.93;;;;;;;14.09;75.77;95278.25;5059744;28;20764;-74
2022/04/28 06:20:00;;;;;;;1.20;1.20;;;;;;;14.18;74.85;95274.44;5062243;28;20205;-73
2022/04/28 06:22:27;;;;;;;0.80;0.80;;;;;;;14.18;74.81;95277.81;5060327;28;20302;-74
2022/04/28 06:24:58;;;;;;;0.98;0.88;;;;;;;14.15;74.32;95277.97;5058484;28;20201;-74
2022/04/28 06:27:28;;;;;;;1.02;0.98;;;;;;;14.21;74.12;95272.56;5060479;28;20772;-74
2022/04/28 06:29:54;;;;;;;1.05;1.05;;;;;;;14.04;74.27;95275.06;5061365;28;20201;-72
2022/04/28 06:32:21;;;;;;;0.68;0.68;;;;;;;14.04;75.08;95285.28;5060673;28;20233;-73
2022/04/28 06:34:49;;;;;;;3.30;1.08;;;;;;;14.04;75.28;95285.28;5059507;28;20198;-75
2022/04/28 06:37:16;;;;;;;1.33;1.23;;;;;;;14.22;74.93;95284.47;5058371;28;20205;-74
2022/04/28 06:39:43;;;;;;;1.42;1.33;;;;;;;14.23;74.24;95281.00;5058304;28;20266;-73
2022/04/28 06:42:12;;;;;;;1.17;1.15;;;;;;;14.16;74.79;95284.72;5060370;28;20270;-74
2022/04/28 06:44:39;;;;;;;1.58;1.10;;;;;;;14.06;75.64;95283.50;5058155;28;20206;-74
2022/04/28 06:47:06;;;;;;;1.20;1.20;;;;;;;14.00;76.12;95288.03;5059859;28;20290;-72
2022/04/28 06:49:34;;;;;;;1.00;1.00;;;;;;;13.99;76.08;95276.97;5060833;28;20255;-74
2022/04/28 06:52:02;;;;;;;1.27;1.23;;;;;;;13.92;76.17;95290.91;5062839;28;21317;-73
2022/04/28 06:54:30;;;;;;;1.13;1.00;;;;;;;13.98;75.98;95297.47;5061844;28;20253;-73
2022/04/28 06:56:56;;;;;;;0.90;0.90;;;;;;;13.82;76.88;95295.59;5060900;28;20326;-74
2022/04/28 06:59:25;;;;;;;0.82;0.82;;;;;;;14.01;76.18;95299.91;5059318;28;20291;-73
2022/04/28 07:01:51;;;;;;;0.93;0.90;;;;;;;14.13;75.59;95297.63;5059110;28;20301;-74
2022/04/28 07:04:18;;;;;;;0.82;0.82;;;;;;;13.93;76.52;95305.34;5059298;28;20206;-73
2022/04/28 07:06:45;;;;;;;1.50;1.17;;;;;;;13.86;76.05;95291.16;5059586;28;20202;-74
2022/04/28 07:09:12;;;;;;;1.30;1.30;;;;;;;14.09;75.62;95300.41;5060420;28;20198;-74
2022/04/28 07:11:38;;;;;;;2.53;2.42;;;;;;;13.71;77.00;95295.19;5060669;28;20226;-75
2022/04/28 07:14:05;;;;;;;1.35;1.23;;;;;;;13.92;76.46;95306.22;5059052;28;20307;-72
2022/04/28 07:16:33;;;;;;;1.40;1.30;;;;;;;14.05;75.00;95271.59;5062046;28;20229;-72
2022/04/28 07:19:02;;;;;;;1.80;1.70;;;;;;;14.45;73.84;95305.66;5061169;28;20361;-74
2022/04/28 07:21:29;;;;;;;1.30;1.20;;;;;;;14.48;73.57;95302.97;5058757;28;20918;-72
2022/04/28 07:23:56;;;;;;;4.20;1.90;;;;;;;14.47;73.48;95308.97;5060641;28;20317;-73
2022/04/28 07:26:22;;;;;;;6.00;2.28;;;;;;;14.48;72.58;95310.63;5059632;28;20257;-72
2022/04/28 07:28:50;;;;;;;1.48;1.40;;;;;;;14.52;73.01;95314.72;5064319;28;20257;-72
2022/04/28 07:31:16;;;;;;;1.50;1.40;;;;;;;14.61;72.61;95312.56;5066280;28;20215;-73
2022/04/28 07:33:44;;;;;;;2.15;1.63;;;;;;;14.48;73.36;95320.84;5064515;28;20750;-73
2022/04/28 07:36:12;;;;;;;1.60;1.50;;;;;;;14.46;73.21;95315.81;5063491;28;20673;-73
2022/04/28 07:38:39;;;;;;;3.55;1.55;;;;;;;14.56;72.53;95314.50;5063473;28;20198;-73
2022/04/28 07:41:06;;;;;;;3.50;1.50;;;;;;;14.63;71.79;95310.75;5062265;28;20330;-74
2022/04/28 07:43:32;;;;;;;0.90;0.90;;;;;;;14.64;71.80;95317.53;5061736;28;20739;-73
2022/04/28 07:45:59;;;;;;;1.00;1.00;;;;;;;14.69;71.46;95314.78;5061347;28;20210;-73
2022/04/28 07:48:26;;;;;;;1.25;1.10;;;;;;;14.72;71.44;95314.63;5063280;28;20257;-75
2022/04/28 07:50:54;;;;;;;1.00;1.00;;;;;;;14.69;71.40;95314.78;5061053;28;20205;-74
2022/04/28 07:53:22;;;;;;;2.40;1.13;;;;;;;14.71;71.68;95312.97;5062055;28;20206;-74
2022/04/28 07:56:10;;;;;;;1.50;1.10;;;;;;;14.91;71.27;95315.44;5064476;28;20545;-75
2022/04/28 07:58:36;;;;;;;3.88;1.40;;;;;;;14.86;70.76;95314.81;5061358;28;20197;-74
2022/04/28 08:01:02;;;;;;;2.10;1.00;;;;;;;14.85;70.94;95320.00;5062518;28;20717;-72
2022/04/28 08:03:29;;;;;;;1.58;1.48;;;;;;;14.81;70.86;95334.69;5061374;28;20287;-73
2022/04/28 08:05:58;;;;;;;2.50;1.20;;;;;;;14.72;71.15;95330.00;5063343;28;21070;-72
2022/04/28 08:08:25;;;;;;;2.80;1.10;;;;;;;14.71;71.17;95338.56;5062765;28;20202;-74
2022/04/28 08:10:52;;;;;;;2.58;1.85;;;;;;;14.90;70.72;95328.31;5064115;28;20202;-74
2022/04/28 08:13:19;;;;;;;4.22;1.83;;;;;;;14.83;70.61;95335.47;5062762;28;20281;-74
2022/04/28 08:15:46;;;;;;;9.07;3.38;;;;;;;14.85;70.59;95341.31;5062454;28;20220;-73
2022/04/28 08:18:12;;;;;;;3.53;2.25;;;;;;;14.91;70.70;95340.19;5063102;28;20331;-74
2022/04/28 08:20:41;;;;;;;5.90;2.80;;;;;;;14.83;70.54;95340.56;5063935;28;20209;-74
2022/04/28 08:23:09;;;;;;;2.65;1.80;;;;;;;14.89;70.52;95337.72;5063974;28;20330;-72
2022/04/28 08:25:37;;;;;;;1.70;1.60;;;;;;;14.98;70.49;95332.19;5062289;28;20233;-73
2022/04/28 08:28:04;;;;;;;3.30;1.38;;;;;;;14.90;70.66;95336.81;5062390;28;20198;-73
2022/04/28 08:30:31;;;;;;;1.35;1.30;;;;;;;15.03;70.46;95336.25;5062954;28;20225;-74
2022/04/28 08:32:59;;;;;;;1.58;1.30;;;;;;;15.00;70.41;95333.84;5065093;28;20278;-73
2022/04/28 08:35:26;;;;;;;4.78;1.60;;;;;;;15.19;70.10;95342.31;5064502;28;20198;-73
2022/04/28 08:37:52;;;;;;;1.60;1.50;;;;;;;15.06;70.11;95341.25;5065230;28;20369;-74
2022/04/28 08:40:21;;;;;;;2.20;1.30;;;;;;;15.17;69.37;95342.38;5062237;28;20209;-73
2022/04/28 08:42:49;;;;;;;1.85;1.58;;;;;;;15.11;70.25;95337.53;5064357;28;20241;-73
2022/04/28 08:45:19;;;;;;;3.15;1.92;;;;;;;15.17;70.14;95342.38;5064219;28;20802;-74
2022/04/28 08:47:48;;;;;;;1.60;1.38;;;;;;;15.35;69.08;95343.22;5064178;28;20785;-75
2022/04/28 08:50:15;;;;;;;3.25;3.05;;;;;;;15.28;69.41;95347.00;5063174;28;20202;-73
2022/04/28 08:52:42;;;;;;;3.33;1.83;;;;;;;15.42;69.11;95342.06;5062525;28;20263;-74
2022/04/28 08:55:10;;;;;;;2.13;1.50;;;;;;;15.53;68.31;95350.06;5063700;28;20241;-75
2022/04/28 08:57:38;;;;;;;4.80;2.92;;;;;;;15.40;69.14;95343.84;5064258;28;20202;-75
2022/04/28 09:00:06;;;;;;;4.25;1.55;;;;;;;15.17;69.43;95346.69;5064710;28;20206;-74
2022/04/28 09:02:34;;;;;;;4.95;1.40;;;;;;;15.26;69.13;95338.56;5064904;28;20206;-73
2022/04/28 09:05:02;;;;;;;4.15;2.30;;;;;;;15.18;69.17;95336.38;5060637;28;20575;-73
2022/04/28 09:07:34;;;;;;;1.45;1.42;;;;;;;15.17;69.49;95331.31;5062380;28;20197;-74
2022/04/28 09:10:01;;;;;;;1.50;1.50;;;;;;;15.47;68.74;95340.09;5063786;28;20292;-73
2022/04/28 09:12:28;;;;;;;4.45;2.35;;;;;;;15.48;68.03;95326.41;5064264;28;20225;-74
2022/04/28 09:15:11;;;;;;;3.78;1.73;;;;;;;15.65;67.53;95344.34;5064338;28;20583;-75
2022/04/28 09:17:42;;;;;;;1.17;1.17;;;;;;;15.41;67.42;95329.31;5063467;28;20761;-75
2022/04/28 09:20:13;;;;;;;2.25;1.50;;;;;;;15.67;66.88;95357.09;5063014;28;21983;-74
2022/04/28 09:22:43;;;;;;;3.42;1.70;;;;;;;15.68;66.81;95353.63;5062878;28;20274;-73
2022/04/28 09:25:12;;;;;;;3.30;1.85;;;;;;;15.63;66.56;95348.72;5058893;28;20630;-73
2022/04/28 09:27:40;;;;;;;2.13;1.83;;;;;;;15.44;67.52;95352.22;5060865;28;20202;-74
2022/04/28 09:30:10;;;;;;;1.73;1.63;;;;;;;15.53;67.31;95354.34;5060142;28;20229;-74
2022/04/28 09:32:40;;;;;;;4.15;2.35;;;;;;;15.64;67.24;95355.50;5059226;28;21100;-75
2022/04/28 09:35:09;;;;;;;1.98;1.88;;;;;;;15.72;66.67;95354.31;5062326;28;20485;-74
2022/04/28 09:37:38;;;;;;;5.55;2.13;;;;;;;15.77;66.42;95353.19;5056702;28;21284;-72
2022/04/28 09:42:51;;;;;;;1.48;1.40;;;;;;;15.74;65.61;95357.63;5077351;28;20360;-73
2022/04/28 09:45:22;;;;;;;2.35;2.15;;;;;;;15.64;65.54;95350.38;5089797;28;20657;-74
2022/04/28 09:47:57;;;;;;;2.42;2.22;;;;;;;15.77;65.65;95357.50;5094905;28;20194;-72
2022/04/28 09:50:25;;;;;;;3.00;2.72;;;;;;;15.64;66.39;95358.06;5093336;28;20193;-73
2022/04/28 09:52:55;;;;;;;2.65;2.45;;;;;;;15.79;65.91;95353.13;5076779;28;20281;-73
2022/04/28 09:55:24;;;;;;;3.72;2.10;;;;;;;16.08;65.05;95347.38;5069252;28;20194;-75
2022/04/28 09:57:51;;;;;;;4.80;3.17;;;;;;;16.12;64.39;95342.91;5067961;28;20190;-74
2022/04/28 10:00:20;;;;;;;3.33;2.80;;;;;;;16.19;64.10;95350.22;5088884;28;20254;-74
2022/04/28 10:02:49;;;;;;;5.40;2.72;;;;;;;16.12;64.82;95342.91;5089967;28;20198;-73
2022/04/28 10:05:18;;;;;;;2.47;2.38;;;;;;;16.18;64.64;95351.09;5090645;28;20194;-74
2022/04/28 10:07:45;;;;;;;3.88;2.80;;;;;;;16.25;64.14;95349.91;5089942;28;20197;-74
2022/04/28 10:10:12;;;;;;;3.95;2.35;;;;;;;16.14;64.06;95347.03;5089419;28;20189;-76
2022/04/28 10:12:40;;;;;;;3.63;2.22;;;;;;;16.25;64.34;95344.78;5090068;28;20193;-73
2022/04/28 10:15:11;;;;;;;4.75;3.00;;;;;;;16.54;63.29;95345.84;5089853;28;20201;-74
2022/04/28 10:17:45;;;;;;;6.05;3.17;;;;;;;16.48;63.86;95350.44;5088963;28;20198;-74
2022/04/28 10:20:19;;;;;;;6.07;3.33;;;;;;;16.50;63.48;95348.63;5088413;28;20246;-75
2022/04/28 10:22:48;;;;;;;3.15;2.53;;;;;;;16.46;63.23;95350.53;5088220;28;20300;-76
2022/04/28 10:33:48;;;;;;;4.68;3.80;;;;;;;16.90;62.16;95340.50;5085903;28;20259;-73
2022/04/28 10:36:20;;;;;;;2.55;2.40;;;;;;;16.96;61.97;95342.75;5090492;28;20205;-73
2022/04/28 10:39:07;;;;;;;7.65;2.83;;;;;;;16.94;61.44;95334.28;5089999;28;20586;-75
2022/04/28 10:41:35;;;;;;;3.72;2.70;;;;;;;17.05;61.23;95331.16;5090460;28;20205;-75
2022/04/28 10:44:16;;;;;;;4.53;3.35;;;;;;;16.95;61.85;95335.94;5090206;28;20298;-75
2022/04/28 10:46:59;;;;;;;2.88;2.67;;;;;;;16.67;62.01;95315.25;5090348;28;20196;-74
2022/04/28 10:49:37;;;;;;;2.78;2.38;;;;;;;16.62;62.83;95332.56;5089869;28;20200;-75
2022/04/28 10:52:04;;;;;;;6.18;2.63;;;;;;;16.72;61.91;95328.66;5090008;28;20682;-74
2022/04/28 10:54:43;;;;;;;3.97;2.92;;;;;;;16.83;62.17;95325.50;5090565;28;20198;-77
2022/04/28 10:57:13;;;;;;;4.32;4.00;;;;;;;17.09;61.07;95332.63;5090153;28;20198;-74
2022/04/28 10:59:41;;;;;;;5.22;3.95;;;;;;;17.38;60.40;95323.31;5089844;28;20630;-75
2022/04/28 11:02:41;;;;;;;3.00;2.80;;;;;;;17.41;60.52;95323.13;5090655;28;20726;-74
2022/04/28 11:05:29;;;;;;;4.25;3.85;;;;;;;17.34;60.60;95329.53;5094156;28;20521;-75
2022/04/28 11:08:00;;;;;;;5.88;3.28;;;;;;;17.44;60.18;95307.56;5093749;28;20193;-73
2022/04/28 11:10:28;;;;;;;5.75;3.97;;;;;;;17.57;59.90;95325.69;5093940;28;20589;-75
2022/04/28 11:12:56;;;;;;;4.03;2.95;;;;;;;17.82;58.45;95318.22;5093901;28;20198;-76
2022/04/28 11:15:25;;;;;;;3.80;2.80;;;;;;;17.80;58.12;95314.97;5094034;28;20225;-75
2022/04/28 11:17:52;;;;;;;6.20;3.42;;;;;;;17.77;58.16;95319.44;5093652;28;20285;-73
2022/04/28 11:20:21;;;;;;;3.15;2.92;;;;;;;17.91;57.17;95317.72;5093912;28;20275;-74
2022/04/28 11:22:51;;;;;;;5.80;3.83;;;;;;;17.86;57.20;95318.91;5093386;28;20304;-74
2022/04/28 11:25:20;;;;;;;3.63;3.42;;;;;;;17.92;57.07;95315.97;5093571;28;20241;-71
2022/04/28 11:27:51;;;;;;;4.95;4.13;;;;;;;17.87;57.33;95321.38;5093529;28;20198;-74
2022/04/28 11:30:20;;;;;;;4.57;4.18;;;;;;;17.60;58.50;95323.75;5093806;28;20203;-74
2022/04/28 11:32:51;;;;;;;4.63;4.32;;;;;;;17.51;59.31;95323.47;5093565;28;20194;-74
2022/04/28 11:35:18;;;;;;;4.50;4.20;;;;;;;17.53;58.65;95319.06;5093763;28;20271;-75
2022/04/28 11:37:45;;;;;;;4.97;4.63;;;;;;;17.54;59.51;95316.41;5093572;28;20197;-74
2022/04/28 11:40:16;;;;;;;17.63;8.32;;;;;;;17.76;58.30;95317.78;5092077;28;20220;-75
2022/04/28 11:42:45;;;;;;;4.53;4.22;;;;;;;17.66;58.71;95314.91;5091497;28;20194;-74
2022/04/28 11:45:14;;;;;;;4.82;4.43;;;;;;;17.80;58.27;95325.25;5091279;28;20223;-74
2022/04/28 11:47:45;;;;;;;5.95;4.13;;;;;;;17.96;57.55;95314.88;5090627;28;20190;-75
2022/04/28 11:50:19;;;;;;;4.53;4.13;;;;;;;17.71;58.46;95304.38;5091199;28;20216;-76
2022/04/28 11:52:57;;;;;;;5.32;4.03;;;;;;;17.90;57.87;95308.34;5091218;28;20194;-76
2022/04/28 11:55:28;;;;;;;5.55;3.90;;;;;;;17.98;56.74;95300.19;5091688;28;20193;-76
2022/04/28 11:57:55;;;;;;;4.55;3.72;;;;;;;17.91;56.78;95311.75;5092983;28;20232;-74
2022/04/28 12:00:25;;;;;;;3.65;3.35;;;;;;;18.31;55.76;95311.03;5091914;28;20825;-76
2022/04/28 12:02:53;;;;;;;4.68;4.25;;;;;;;18.44;55.64;95310.31;5090847;28;20197;-75
2022/04/28 12:05:23;;;;;;;4.78;4.47;;;;;;;18.25;56.25;95310.59;5091002;28;20230;-76
2022/04/28 12:07:55;;;;;;;4.93;4.53;;;;;;;18.06;56.44;95297.19;5090864;28;20681;-75
2022/04/28 12:15:56;;;;;;;6.15;4.60;;;;;;;17.69;57.98;95294.16;5092589;28;20216;-74